sensor_id;sensor_type;location;lat;lon;timestamp;P1;durP1;ratioP1;P2;durP2;ratioP2
41139;SDS011;26881;48.784;9.192;2023-03-01T00:00:22;19.87;;;14.83;;
41139;SDS011;26881;48.784;9.192;2023-03-01T00:05:47;23.40;;;14.70;;
41139;SDS011;26881;48.784;9.192;2023-03-01T00:11:13;21.80;;;15.00;;
41139;SDS011;26881;48.784;9.192;2023-03-01T00:16:38;22.27;;;15.23;;
41139;SDS011;26881;48.784;9.192;2023-03-01T00:22:01;20.37;;;14.77;;
41139;SDS011;26881;48.784;9.192;2023-03-01T00:27:23;21.20;;;14.83;;
41139;SDS011;26881;48.784;9.192;2023-03-01T00:32:45;22.40;;;14.93;;
41139;SDS011;26881;48.784;9.192;2023-03-01T00:38:07;23.07;;;15.17;;
41139;SDS011;26881;48.784;9.192;2023-03-01T00:43:29;20.83;;;14.23;;
41139;SDS011;26881;48.784;9.192;2023-03-01T00:48:52;23.23;;;15.57;;
41139;SDS011;26881;48.784;9.192;2023-03-01T00:54:14;21.47;;;14.90;;
41139;SDS011;26881;48.784;9.192;2023-03-01T00:59:36;20.40;;;14.70;;
41139;SDS011;26881;48.784;9.192;2023-03-01T01:04:58;20.47;;;14.77;;
41139;SDS011;26881;48.784;9.192;2023-03-01T01:10:20;22.87;;;15.77;;
41139;SDS011;26881;48.784;9.192;2023-03-01T01:15:42;19.83;;;13.73;;
41139;SDS011;26881;48.784;9.192;2023-03-01T01:21:05;18.27;;;13.97;;
41139;SDS011;26881;48.784;9.192;2023-03-01T01:26:29;19.33;;;14.37;;
41139;SDS011;26881;48.784;9.192;2023-03-01T01:31:53;20.77;;;15.27;;
41139;SDS011;26881;48.784;9.192;2023-03-01T01:37:14;22.03;;;14.50;;
41139;SDS011;26881;48.784;9.192;2023-03-01T01:42:36;20.80;;;14.93;;
41139;SDS011;26881;48.784;9.192;2023-03-01T01:48:00;22.77;;;15.37;;
41139;SDS011;26881;48.784;9.192;2023-03-01T01:53:26;21.63;;;14.40;;
41139;SDS011;26881;48.784;9.192;2023-03-01T01:58:48;21.37;;;15.07;;
41139;SDS011;26881;48.784;9.192;2023-03-01T02:04:10;20.23;;;14.13;;
41139;SDS011;26881;48.784;9.192;2023-03-01T02:09:32;19.67;;;15.30;;
41139;SDS011;26881;48.784;9.192;2023-03-01T02:14:56;23.53;;;15.10;;
41139;SDS011;26881;48.784;9.192;2023-03-01T02:25:53;22.23;;;16.27;;
41139;SDS011;26881;48.784;9.192;2023-03-01T02:31:22;23.53;;;15.13;;
41139;SDS011;26881;48.784;9.192;2023-03-01T02:37:04;23.23;;;15.33;;
41139;SDS011;26881;48.784;9.192;2023-03-01T02:42:30;22.20;;;15.50;;
41139;SDS011;26881;48.784;9.192;2023-03-01T02:47:57;21.60;;;16.30;;
41139;SDS011;26881;48.784;9.192;2023-03-01T02:53:21;23.80;;;16.33;;
41139;SDS011;26881;48.784;9.192;2023-03-01T02:58:53;22.67;;;15.97;;
41139;SDS011;26881;48.784;9.192;2023-03-01T03:04:16;22.40;;;16.67;;
41139;SDS011;26881;48.784;9.192;2023-03-01T03:09:39;22.13;;;16.13;;
41139;SDS011;26881;48.784;9.192;2023-03-01T03:15:01;21.90;;;15.83;;
41139;SDS011;26881;48.784;9.192;2023-03-01T03:20:30;22.67;;;16.87;;
41139;SDS011;26881;48.784;9.192;2023-03-01T03:25:52;24.23;;;16.73;;
41139;SDS011;26881;48.784;9.192;2023-03-01T03:31:13;24.13;;;16.47;;
41139;SDS011;26881;48.784;9.192;2023-03-01T03:36:35;23.27;;;16.60;;
41139;SDS011;26881;48.784;9.192;2023-03-01T03:41:57;24.27;;;17.77;;
41139;SDS011;26881;48.784;9.192;2023-03-01T03:47:19;28.83;;;17.47;;
41139;SDS011;26881;48.784;9.192;2023-03-01T03:52:40;26.07;;;16.93;;
41139;SDS011;26881;48.784;9.192;2023-03-01T03:58:03;26.03;;;16.53;;
41139;SDS011;26881;48.784;9.192;2023-03-01T04:03:29;25.93;;;17.00;;
41139;SDS011;26881;48.784;9.192;2023-03-01T04:08:53;26.43;;;16.87;;
41139;SDS011;26881;48.784;9.192;2023-03-01T04:14:19;21.87;;;17.30;;
41139;SDS011;26881;48.784;9.192;2023-03-01T04:19:41;22.63;;;16.47;;
41139;SDS011;26881;48.784;9.192;2023-03-01T04:25:05;24.23;;;16.80;;
41139;SDS011;26881;48.784;9.192;2023-03-01T04:30:28;24.47;;;17.77;;
41139;SDS011;26881;48.784;9.192;2023-03-01T04:35:50;25.20;;;18.03;;
41139;SDS011;26881;48.784;9.192;2023-03-01T04:41:13;30.93;;;18.77;;
41139;SDS011;26881;48.784;9.192;2023-03-01T04:46:36;27.37;;;17.47;;
41139;SDS011;26881;48.784;9.192;2023-03-01T04:51:58;24.50;;;18.20;;
41139;SDS011;26881;48.784;9.192;2023-03-01T04:57:23;22.87;;;17.50;;
41139;SDS011;26881;48.784;9.192;2023-03-01T05:02:52;26.20;;;17.60;;
41139;SDS011;26881;48.784;9.192;2023-03-01T05:08:19;27.20;;;18.00;;
41139;SDS011;26881;48.784;9.192;2023-03-01T05:13:42;25.23;;;18.20;;
41139;SDS011;26881;48.784;9.192;2023-03-01T05:19:04;27.13;;;19.00;;
41139;SDS011;26881;48.784;9.192;2023-03-01T05:24:34;24.20;;;17.40;;
41139;SDS011;26881;48.784;9.192;2023-03-01T05:29:56;26.27;;;18.70;;
41139;SDS011;26881;48.784;9.192;2023-03-01T05:35:18;26.50;;;17.67;;
41139;SDS011;26881;48.784;9.192;2023-03-01T05:40:44;25.60;;;18.00;;
41139;SDS011;26881;48.784;9.192;2023-03-01T05:46:08;26.67;;;18.83;;
41139;SDS011;26881;48.784;9.192;2023-03-01T05:51:34;28.53;;;18.67;;
41139;SDS011;26881;48.784;9.192;2023-03-01T05:56:55;25.60;;;17.37;;
41139;SDS011;26881;48.784;9.192;2023-03-01T06:02:17;25.40;;;18.90;;
41139;SDS011;26881;48.784;9.192;2023-03-01T06:07:40;27.47;;;18.77;;
41139;SDS011;26881;48.784;9.192;2023-03-01T06:13:02;24.40;;;18.53;;
41139;SDS011;26881;48.784;9.192;2023-03-01T06:18:24;27.10;;;17.60;;
41139;SDS011;26881;48.784;9.192;2023-03-01T06:23:46;25.00;;;17.53;;
41139;SDS011;26881;48.784;9.192;2023-03-01T06:29:07;27.00;;;18.27;;
41139;SDS011;26881;48.784;9.192;2023-03-01T06:34:30;26.03;;;18.33;;
41139;SDS011;26881;48.784;9.192;2023-03-01T06:39:52;26.50;;;18.37;;
41139;SDS011;26881;48.784;9.192;2023-03-01T06:45:14;31.50;;;19.27;;
41139;SDS011;26881;48.784;9.192;2023-03-01T06:50:36;24.30;;;19.17;;
41139;SDS011;26881;48.784;9.192;2023-03-01T06:55:59;27.10;;;19.43;;
41139;SDS011;26881;48.784;9.192;2023-03-01T07:01:21;34.57;;;20.17;;
41139;SDS011;26881;48.784;9.192;2023-03-01T07:06:43;24.97;;;19.03;;
41139;SDS011;26881;48.784;9.192;2023-03-01T07:12:05;28.17;;;19.57;;
41139;SDS011;26881;48.784;9.192;2023-03-01T07:17:27;27.00;;;20.40;;
41139;SDS011;26881;48.784;9.192;2023-03-01T07:22:49;29.47;;;20.57;;
41139;SDS011;26881;48.784;9.192;2023-03-01T07:28:10;27.47;;;19.90;;
41139;SDS011;26881;48.784;9.192;2023-03-01T07:33:32;29.73;;;19.53;;
41139;SDS011;26881;48.784;9.192;2023-03-01T07:38:54;29.40;;;19.57;;
41139;SDS011;26881;48.784;9.192;2023-03-01T07:44:17;28.60;;;19.77;;
41139;SDS011;26881;48.784;9.192;2023-03-01T07:49:38;28.87;;;19.63;;
41139;SDS011;26881;48.784;9.192;2023-03-01T07:55:00;29.33;;;20.23;;
41139;SDS011;26881;48.784;9.192;2023-03-01T08:00:22;28.67;;;20.27;;
41139;SDS011;26881;48.784;9.192;2023-03-01T08:05:44;28.73;;;19.57;;
41139;SDS011;26881;48.784;9.192;2023-03-01T08:11:06;25.87;;;20.30;;
41139;SDS011;26881;48.784;9.192;2023-03-01T08:16:31;31.57;;;20.67;;
41139;SDS011;26881;48.784;9.192;2023-03-01T08:21:55;29.13;;;20.50;;
41139;SDS011;26881;48.784;9.192;2023-03-01T08:27:19;30.93;;;20.17;;
41139;SDS011;26881;48.784;9.192;2023-03-01T08:32:41;30.87;;;21.93;;
41139;SDS011;26881;48.784;9.192;2023-03-01T08:38:03;31.57;;;21.23;;
41139;SDS011;26881;48.784;9.192;2023-03-01T08:43:25;31.10;;;21.67;;
41139;SDS011;26881;48.784;9.192;2023-03-01T08:48:47;30.33;;;21.37;;
41139;SDS011;26881;48.784;9.192;2023-03-01T08:54:12;29.10;;;20.67;;
41139;SDS011;26881;48.784;9.192;2023-03-01T08:59:36;31.07;;;21.60;;
41139;SDS011;26881;48.784;9.192;2023-03-01T09:04:58;32.43;;;20.97;;
41139;SDS011;26881;48.784;9.192;2023-03-01T09:10:20;28.63;;;21.30;;
41139;SDS011;26881;48.784;9.192;2023-03-01T09:15:42;28.33;;;20.53;;
41139;SDS011;26881;48.784;9.192;2023-03-01T09:21:05;28.73;;;20.30;;
41139;SDS011;26881;48.784;9.192;2023-03-01T09:26:28;30.93;;;21.63;;
41139;SDS011;26881;48.784;9.192;2023-03-01T09:31:51;30.20;;;21.23;;
41139;SDS011;26881;48.784;9.192;2023-03-01T09:37:16;29.27;;;20.97;;
41139;SDS011;26881;48.784;9.192;2023-03-01T09:42:44;29.27;;;20.83;;
41139;SDS011;26881;48.784;9.192;2023-03-01T09:48:12;31.27;;;21.47;;
41139;SDS011;26881;48.784;9.192;2023-03-01T09:53:38;28.97;;;20.07;;
41139;SDS011;26881;48.784;9.192;2023-03-01T10:04:47;29.03;;;19.93;;
41139;SDS011;26881;48.784;9.192;2023-03-01T10:10:15;34.27;;;20.27;;
41139;SDS011;26881;48.784;9.192;2023-03-01T10:15:51;25.70;;;19.17;;
41139;SDS011;26881;48.784;9.192;2023-03-01T10:21:18;25.20;;;18.87;;
41139;SDS011;26881;48.784;9.192;2023-03-01T10:26:44;24.73;;;18.40;;
41139;SDS011;26881;48.784;9.192;2023-03-01T10:32:10;25.63;;;19.83;;
41139;SDS011;26881;48.784;9.192;2023-03-01T10:37:32;33.20;;;18.80;;
41139;SDS011;26881;48.784;9.192;2023-03-01T10:42:54;26.37;;;18.13;;
41139;SDS011;26881;48.784;9.192;2023-03-01T10:48:21;21.40;;;17.43;;
41139;SDS011;26881;48.784;9.192;2023-03-01T10:53:48;30.90;;;18.87;;
41139;SDS011;26881;48.784;9.192;2023-03-01T10:59:19;30.40;;;18.73;;
41139;SDS011;26881;48.784;9.192;2023-03-01T11:10:45;25.40;;;19.10;;
41139;SDS011;26881;48.784;9.192;2023-03-01T11:16:07;24.40;;;18.27;;
41139;SDS011;26881;48.784;9.192;2023-03-01T11:21:33;24.13;;;19.00;;
41139;SDS011;26881;48.784;9.192;2023-03-01T11:26:58;23.57;;;18.17;;
41139;SDS011;26881;48.784;9.192;2023-03-01T11:32:24;24.53;;;18.67;;
41139;SDS011;26881;48.784;9.192;2023-03-01T11:43:26;23.93;;;18.80;;
41139;SDS011;26881;48.784;9.192;2023-03-01T11:54:54;25.97;;;18.60;;
41139;SDS011;26881;48.784;9.192;2023-03-01T12:00:32;23.83;;;18.03;;
41139;SDS011;26881;48.784;9.192;2023-03-01T12:12:06;22.60;;;16.87;;
41139;SDS011;26881;48.784;9.192;2023-03-01T12:17:48;20.03;;;16.33;;
41139;SDS011;26881;48.784;9.192;2023-03-01T12:28:48;22.42;;;16.92;;
41139;SDS011;26881;48.784;9.192;2023-03-01T12:34:25;19.40;;;14.80;;
41139;SDS011;26881;48.784;9.192;2023-03-01T12:40:02;19.63;;;15.82;;
41139;SDS011;26881;48.784;9.192;2023-03-01T12:45:47;20.50;;;15.17;;
41139;SDS011;26881;48.784;9.192;2023-03-01T12:51:17;20.50;;;15.80;;
41139;SDS011;26881;48.784;9.192;2023-03-01T12:56:43;19.40;;;14.93;;
41139;SDS011;26881;48.784;9.192;2023-03-01T13:08:01;19.42;;;14.27;;
41139;SDS011;26881;48.784;9.192;2023-03-01T13:13:26;15.40;;;12.70;;
41139;SDS011;26881;48.784;9.192;2023-03-01T13:18:49;18.17;;;14.10;;
41139;SDS011;26881;48.784;9.192;2023-03-01T13:30:00;16.92;;;14.00;;
41139;SDS011;26881;48.784;9.192;2023-03-01T13:41:03;21.13;;;16.10;;
41139;SDS011;26881;48.784;9.192;2023-03-01T13:46:26;20.50;;;15.77;;
41139;SDS011;26881;48.784;9.192;2023-03-01T13:51:51;21.33;;;15.55;;
41139;SDS011;26881;48.784;9.192;2023-03-01T13:57:16;23.77;;;16.40;;
41139;SDS011;26881;48.784;9.192;2023-03-01T14:02:44;21.90;;;17.50;;
41139;SDS011;26881;48.784;9.192;2023-03-01T14:08:17;22.60;;;18.10;;
41139;SDS011;26881;48.784;9.192;2023-03-01T14:13:54;22.03;;;18.80;;
41139;SDS011;26881;48.784;9.192;2023-03-01T14:19:31;24.00;;;18.65;;
41139;SDS011;26881;48.784;9.192;2023-03-01T14:24:58;23.55;;;17.92;;
41139;SDS011;26881;48.784;9.192;2023-03-01T14:30:24;22.33;;;18.00;;
41139;SDS011;26881;48.784;9.192;2023-03-01T14:35:53;22.98;;;17.60;;
41139;SDS011;26881;48.784;9.192;2023-03-01T14:41:16;25.88;;;17.98;;
41139;SDS011;26881;48.784;9.192;2023-03-01T14:46:41;22.70;;;18.63;;
41139;SDS011;26881;48.784;9.192;2023-03-01T14:52:18;25.95;;;18.98;;
41139;SDS011;26881;48.784;9.192;2023-03-01T14:57:44;24.13;;;18.10;;
41139;SDS011;26881;48.784;9.192;2023-03-01T15:03:14;23.38;;;18.83;;
41139;SDS011;26881;48.784;9.192;2023-03-01T15:08:46;21.67;;;17.60;;
41139;SDS011;26881;48.784;9.192;2023-03-01T15:20:16;24.88;;;19.10;;
41139;SDS011;26881;48.784;9.192;2023-03-01T15:25:44;22.15;;;17.75;;
41139;SDS011;26881;48.784;9.192;2023-03-01T15:31:40;24.80;;;18.52;;
41139;SDS011;26881;48.784;9.192;2023-03-01T15:36:58;24.88;;;18.13;;
41139;SDS011;26881;48.784;9.192;2023-03-01T15:47:50;23.60;;;18.48;;
41139;SDS011;26881;48.784;9.192;2023-03-01T15:53:15;25.25;;;17.38;;
41139;SDS011;26881;48.784;9.192;2023-03-01T15:58:36;23.10;;;16.23;;
41139;SDS011;26881;48.784;9.192;2023-03-01T16:03:58;21.58;;;17.33;;
41139;SDS011;26881;48.784;9.192;2023-03-01T16:09:21;20.75;;;16.35;;
41139;SDS011;26881;48.784;9.192;2023-03-01T16:14:44;25.52;;;18.02;;
41139;SDS011;26881;48.784;9.192;2023-03-01T16:20:06;25.70;;;17.60;;
41139;SDS011;26881;48.784;9.192;2023-03-01T16:25:30;25.37;;;17.13;;
41139;SDS011;26881;48.784;9.192;2023-03-01T16:30:53;23.05;;;16.63;;
41139;SDS011;26881;48.784;9.192;2023-03-01T16:36:17;23.35;;;17.77;;
41139;SDS011;26881;48.784;9.192;2023-03-01T16:41:40;24.42;;;17.73;;
41139;SDS011;26881;48.784;9.192;2023-03-01T16:47:02;23.13;;;16.67;;
41139;SDS011;26881;48.784;9.192;2023-03-01T16:52:23;22.10;;;16.90;;
41139;SDS011;26881;48.784;9.192;2023-03-01T16:57:45;21.55;;;17.48;;
41139;SDS011;26881;48.784;9.192;2023-03-01T17:03:07;25.80;;;18.42;;
41139;SDS011;26881;48.784;9.192;2023-03-01T17:08:29;22.53;;;16.77;;
41139;SDS011;26881;48.784;9.192;2023-03-01T17:13:51;22.00;;;16.65;;
41139;SDS011;26881;48.784;9.192;2023-03-01T17:19:12;26.10;;;18.05;;
41139;SDS011;26881;48.784;9.192;2023-03-01T17:24:39;23.08;;;17.65;;
41139;SDS011;26881;48.784;9.192;2023-03-01T17:30:02;24.13;;;18.47;;
41139;SDS011;26881;48.784;9.192;2023-03-01T17:35:25;26.07;;;17.13;;
41139;SDS011;26881;48.784;9.192;2023-03-01T17:40:47;25.53;;;19.00;;
41139;SDS011;26881;48.784;9.192;2023-03-01T17:46:09;23.33;;;17.88;;
41139;SDS011;26881;48.784;9.192;2023-03-01T17:51:31;24.45;;;17.15;;
41139;SDS011;26881;48.784;9.192;2023-03-01T17:56:54;24.83;;;17.17;;
41139;SDS011;26881;48.784;9.192;2023-03-01T18:02:16;23.53;;;16.40;;
41139;SDS011;26881;48.784;9.192;2023-03-01T18:07:40;24.37;;;17.50;;
41139;SDS011;26881;48.784;9.192;2023-03-01T18:13:02;24.47;;;17.53;;
41139;SDS011;26881;48.784;9.192;2023-03-01T18:18:25;28.60;;;16.97;;
41139;SDS011;26881;48.784;9.192;2023-03-01T18:23:50;27.53;;;17.77;;
41139;SDS011;26881;48.784;9.192;2023-03-01T18:29:13;26.07;;;17.67;;
41139;SDS011;26881;48.784;9.192;2023-03-01T18:34:35;27.50;;;19.33;;
41139;SDS011;26881;48.784;9.192;2023-03-01T18:39:57;29.20;;;20.20;;
41139;SDS011;26881;48.784;9.192;2023-03-01T18:45:18;27.10;;;18.63;;
41139;SDS011;26881;48.784;9.192;2023-03-01T18:50:40;27.67;;;19.33;;
41139;SDS011;26881;48.784;9.192;2023-03-01T18:56:02;30.97;;;19.77;;
41139;SDS011;26881;48.784;9.192;2023-03-01T19:01:25;30.17;;;19.80;;
41139;SDS011;26881;48.784;9.192;2023-03-01T19:06:49;32.40;;;20.43;;
41139;SDS011;26881;48.784;9.192;2023-03-01T19:12:11;32.80;;;21.57;;
41139;SDS011;26881;48.784;9.192;2023-03-01T19:17:33;33.97;;;22.27;;
41139;SDS011;26881;48.784;9.192;2023-03-01T19:22:55;37.20;;;24.50;;
41139;SDS011;26881;48.784;9.192;2023-03-01T19:28:16;42.43;;;26.20;;
41139;SDS011;26881;48.784;9.192;2023-03-01T19:33:38;43.37;;;25.97;;
41139;SDS011;26881;48.784;9.192;2023-03-01T19:39:02;44.40;;;26.97;;
41139;SDS011;26881;48.784;9.192;2023-03-01T19:44:25;51.60;;;29.63;;
41139;SDS011;26881;48.784;9.192;2023-03-01T19:49:47;45.10;;;28.13;;
41139;SDS011;26881;48.784;9.192;2023-03-01T19:55:09;51.20;;;26.27;;
41139;SDS011;26881;48.784;9.192;2023-03-01T20:00:32;39.70;;;24.87;;
41139;SDS011;26881;48.784;9.192;2023-03-01T20:05:54;41.47;;;24.63;;
41139;SDS011;26881;48.784;9.192;2023-03-01T20:11:17;38.17;;;23.50;;
41139;SDS011;26881;48.784;9.192;2023-03-01T20:16:40;35.50;;;23.13;;
41139;SDS011;26881;48.784;9.192;2023-03-01T20:22:04;35.37;;;21.80;;
41139;SDS011;26881;48.784;9.192;2023-03-01T20:27:26;29.80;;;20.20;;
41139;SDS011;26881;48.784;9.192;2023-03-01T20:32:48;35.33;;;22.30;;
41139;SDS011;26881;48.784;9.192;2023-03-01T20:38:10;36.30;;;22.70;;
41139;SDS011;26881;48.784;9.192;2023-03-01T20:43:32;33.87;;;21.60;;
41139;SDS011;26881;48.784;9.192;2023-03-01T20:48:55;30.50;;;21.37;;
41139;SDS011;26881;48.784;9.192;2023-03-01T20:54:17;31.03;;;20.97;;
41139;SDS011;26881;48.784;9.192;2023-03-01T20:59:38;31.00;;;20.83;;
41139;SDS011;26881;48.784;9.192;2023-03-01T21:05:00;35.53;;;20.10;;
41139;SDS011;26881;48.784;9.192;2023-03-01T21:10:22;29.07;;;19.90;;
41139;SDS011;26881;48.784;9.192;2023-03-01T21:15:51;31.33;;;21.60;;
41139;SDS011;26881;48.784;9.192;2023-03-01T21:21:18;30.27;;;20.23;;
41139;SDS011;26881;48.784;9.192;2023-03-01T21:26:41;30.43;;;20.67;;
41139;SDS011;26881;48.784;9.192;2023-03-01T21:32:04;32.20;;;20.57;;
41139;SDS011;26881;48.784;9.192;2023-03-01T21:37:27;28.43;;;20.00;;
41139;SDS011;26881;48.784;9.192;2023-03-01T21:42:49;29.50;;;19.77;;
41139;SDS011;26881;48.784;9.192;2023-03-01T21:48:10;29.17;;;20.73;;
41139;SDS011;26881;48.784;9.192;2023-03-01T21:53:34;31.77;;;19.97;;
41139;SDS011;26881;48.784;9.192;2023-03-01T21:58:56;28.87;;;20.70;;
41139;SDS011;26881;48.784;9.192;2023-03-01T22:04:18;29.47;;;21.37;;
41139;SDS011;26881;48.784;9.192;2023-03-01T22:09:44;31.30;;;20.40;;
41139;SDS011;26881;48.784;9.192;2023-03-01T22:15:06;31.30;;;22.07;;
41139;SDS011;26881;48.784;9.192;2023-03-01T22:20:28;27.77;;;20.93;;
41139;SDS011;26881;48.784;9.192;2023-03-01T22:25:49;30.83;;;21.13;;
41139;SDS011;26881;48.784;9.192;2023-03-01T22:31:11;28.23;;;21.47;;
41139;SDS011;26881;48.784;9.192;2023-03-01T22:36:33;29.70;;;21.10;;
41139;SDS011;26881;48.784;9.192;2023-03-01T22:41:55;30.70;;;21.17;;
41139;SDS011;26881;48.784;9.192;2023-03-01T22:47:17;30.53;;;20.27;;
41139;SDS011;26881;48.784;9.192;2023-03-01T22:52:39;32.83;;;21.40;;
41139;SDS011;26881;48.784;9.192;2023-03-01T22:58:00;32.60;;;21.47;;
41139;SDS011;26881;48.784;9.192;2023-03-01T23:03:22;29.37;;;22.10;;
41139;SDS011;26881;48.784;9.192;2023-03-01T23:08:48;29.63;;;21.17;;
41139;SDS011;26881;48.784;9.192;2023-03-01T23:14:11;30.23;;;20.80;;
41139;SDS011;26881;48.784;9.192;2023-03-01T23:19:33;30.93;;;21.73;;
41139;SDS011;26881;48.784;9.192;2023-03-01T23:24:55;32.80;;;22.20;;
41139;SDS011;26881;48.784;9.192;2023-03-01T23:30:17;31.10;;;20.97;;
41139;SDS011;26881;48.784;9.192;2023-03-01T23:35:38;30.80;;;21.77;;
41139;SDS011;26881;48.784;9.192;2023-03-01T23:41:00;33.50;;;21.60;;
41139;SDS011;26881;48.784;9.192;2023-03-01T23:46:23;31.77;;;22.33;;
41139;SDS011;26881;48.784;9.192;2023-03-01T23:51:47;34.67;;;21.40;;
41139;SDS011;26881;48.784;9.192;2023-03-01T23:57:09;37.10;;;23.00;;
